sensor_id;sensor_type;location;lat;lon;timestamp;pressure;altitude;pressure_sealevel;temperature;humidity
64668;BME280;51077;42.716;23.344;2023-07-13T00:00:42;95616.00;;;25.51;49.56
64668;BME280;51077;42.716;23.344;2023-07-13T00:03:07;95613.81;;;25.49;49.77
64668;BME280;51077;42.716;23.344;2023-07-13T00:05:33;95611.47;;;25.46;49.94
64668;BME280;51077;42.716;23.344;2023-07-13T00:07:58;95611.94;;;25.42;49.92
64668;BME280;51077;42.716;23.344;2023-07-13T00:10:24;95615.34;;;25.41;50.34
64668;BME280;51077;42.716;23.344;2023-07-13T00:12:50;95615.22;;;25.39;50.12
64668;BME280;51077;42.716;23.344;2023-07-13T00:15:20;95613.75;;;25.38;50.18
64668;BME280;51077;42.716;23.344;2023-07-13T00:17:51;95605.81;;;25.34;50.47
64668;BME280;51077;42.716;23.344;2023-07-13T00:20:17;95604.19;;;25.31;50.78
64668;BME280;51077;42.716;23.344;2023-07-13T00:22:42;95601.25;;;25.29;50.85
64668;BME280;51077;42.716;23.344;2023-07-13T00:25:10;95607.34;;;25.25;51.04
64668;BME280;51077;42.716;23.344;2023-07-13T00:27:36;95607.94;;;25.24;50.99
64668;BME280;51077;42.716;23.344;2023-07-13T00:30:02;95603.41;;;25.19;51.51
64668;BME280;51077;42.716;23.344;2023-07-13T00:32:28;95591.28;;;25.16;51.57
64668;BME280;51077;42.716;23.344;2023-07-13T00:34:55;95596.91;;;25.16;51.88
64668;BME280;51077;42.716;23.344;2023-07-13T00:37:21;95597.25;;;25.11;51.88
64668;BME280;51077;42.716;23.344;2023-07-13T00:39:47;95592.97;;;25.10;51.86
64668;BME280;51077;42.716;23.344;2023-07-13T00:42:12;95594.16;;;25.06;52.03
64668;BME280;51077;42.716;23.344;2023-07-13T00:44:37;95593.88;;;25.02;51.85
64668;BME280;51077;42.716;23.344;2023-07-13T00:47:05;95601.44;;;25.00;52.18
64668;BME280;51077;42.716;23.344;2023-07-13T00:49:32;95604.84;;;24.98;52.53
64668;BME280;51077;42.716;23.344;2023-07-13T00:52:02;95587.72;;;24.94;52.66
64668;BME280;51077;42.716;23.344;2023-07-13T00:54:32;95591.88;;;24.93;52.72
64668;BME280;51077;42.716;23.344;2023-07-13T00:57:01;95590.25;;;24.90;53.01
64668;BME280;51077;42.716;23.344;2023-07-13T00:59:28;95587.34;;;24.88;52.82
64668;BME280;51077;42.716;23.344;2023-07-13T01:01:54;95587.78;;;24.85;53.03
64668;BME280;51077;42.716;23.344;2023-07-13T01:04:19;95581.31;;;24.82;53.20
64668;BME280;51077;42.716;23.344;2023-07-13T01:06:45;95591.66;;;24.79;53.53
64668;BME280;51077;42.716;23.344;2023-07-13T01:09:14;95590.06;;;24.76;53.39
64668;BME280;51077;42.716;23.344;2023-07-13T01:11:41;95585.66;;;24.73;53.49
64668;BME280;51077;42.716;23.344;2023-07-13T01:14:07;95588.31;;;24.71;53.67
64668;BME280;51077;42.716;23.344;2023-07-13T01:16:34;95588.94;;;24.70;53.59
64668;BME280;51077;42.716;23.344;2023-07-13T01:19:01;95589.38;;;24.66;54.02
64668;BME280;51077;42.716;23.344;2023-07-13T01:21:29;95584.22;;;24.63;54.07
64668;BME280;51077;42.716;23.344;2023-07-13T01:23:57;95580.56;;;24.60;54.06
64668;BME280;51077;42.716;23.344;2023-07-13T01:26:22;95586.66;;;24.56;54.13
64668;BME280;51077;42.716;23.344;2023-07-13T01:28:48;95579.56;;;24.55;54.34
64668;BME280;51077;42.716;23.344;2023-07-13T01:31:13;95587.09;;;24.53;54.61
64668;BME280;51077;42.716;23.344;2023-07-13T01:33:40;95582.09;;;24.51;54.50
64668;BME280;51077;42.716;23.344;2023-07-13T01:36:07;95580.59;;;24.50;54.62
64668;BME280;51077;42.716;23.344;2023-07-13T01:38:33;95582.56;;;24.48;54.48
64668;BME280;51077;42.716;23.344;2023-07-13T01:40:59;95580.94;;;24.45;54.48
64668;BME280;51077;42.716;23.344;2023-07-13T01:43:24;95581.53;;;24.43;54.53
64668;BME280;51077;42.716;23.344;2023-07-13T01:45:50;95584.19;;;24.41;54.72
64668;BME280;51077;42.716;23.344;2023-07-13T01:48:15;95579.19;;;24.40;54.62
64668;BME280;51077;42.716;23.344;2023-07-13T01:50:41;95579.81;;;24.38;54.68
64668;BME280;51077;42.716;23.344;2023-07-13T01:53:06;95578.16;;;24.35;54.59
64668;BME280;51077;42.716;23.344;2023-07-13T01:55:33;95580.22;;;24.35;54.66
64668;BME280;51077;42.716;23.344;2023-07-13T01:57:58;95577.88;;;24.31;54.79
64668;BME280;51077;42.716;23.344;2023-07-13T02:00:24;95577.72;;;24.29;55.01
64668;BME280;51077;42.716;23.344;2023-07-13T02:02:50;95589.44;;;24.25;54.95
64668;BME280;51077;42.716;23.344;2023-07-13T02:05:16;95588.66;;;24.25;55.01
64668;BME280;51077;42.716;23.344;2023-07-13T02:07:42;95585.72;;;24.23;55.03
64668;BME280;51077;42.716;23.344;2023-07-13T02:10:09;95589.72;;;24.20;54.85
64668;BME280;51077;42.716;23.344;2023-07-13T02:12:35;95591.66;;;24.17;55.06
64668;BME280;51077;42.716;23.344;2023-07-13T02:15:01;95591.50;;;24.15;54.98
64668;BME280;51077;42.716;23.344;2023-07-13T02:17:27;95594.19;;;24.13;54.97
64668;BME280;51077;42.716;23.344;2023-07-13T02:19:52;95597.72;;;24.14;55.04
64668;BME280;51077;42.716;23.344;2023-07-13T02:22:18;95594.03;;;24.11;55.05
64668;BME280;51077;42.716;23.344;2023-07-13T02:24:43;95591.72;;;24.07;54.90
64668;BME280;51077;42.716;23.344;2023-07-13T02:27:09;95601.44;;;24.06;55.09
64668;BME280;51077;42.716;23.344;2023-07-13T02:29:34;95595.53;;;24.02;55.05
64668;BME280;51077;42.716;23.344;2023-07-13T02:31:59;95603.09;;;24.00;55.06
64668;BME280;51077;42.716;23.344;2023-07-13T02:34:25;95594.53;;;23.98;55.14
64668;BME280;51077;42.716;23.344;2023-07-13T02:36:50;95597.94;;;23.96;55.02
64668;BME280;51077;42.716;23.344;2023-07-13T02:39:16;95600.56;;;23.94;55.19
64668;BME280;51077;42.716;23.344;2023-07-13T02:41:41;95596.31;;;23.93;55.29
64668;BME280;51077;42.716;23.344;2023-07-13T02:44:07;95598.97;;;23.91;55.30
64668;BME280;51077;42.716;23.344;2023-07-13T02:46:35;95603.13;;;23.90;55.25
64668;BME280;51077;42.716;23.344;2023-07-13T02:49:02;95602.22;;;23.88;55.21
64668;BME280;51077;42.716;23.344;2023-07-13T02:51:27;95601.50;;;23.87;55.33
64668;BME280;51077;42.716;23.344;2023-07-13T02:53:53;95612.44;;;23.83;55.28
64668;BME280;51077;42.716;23.344;2023-07-13T02:56:23;95608.72;;;23.80;55.25
64668;BME280;51077;42.716;23.344;2023-07-13T02:58:48;95601.66;;;23.79;55.26
64668;BME280;51077;42.716;23.344;2023-07-13T03:01:14;95605.06;;;23.78;55.24
64668;BME280;51077;42.716;23.344;2023-07-13T03:03:46;95613.31;;;23.76;55.53
64668;BME280;51077;42.716;23.344;2023-07-13T03:06:13;95608.91;;;23.73;55.47
64668;BME280;51077;42.716;23.344;2023-07-13T03:08:39;95607.28;;;23.70;55.54
64668;BME280;51077;42.716;23.344;2023-07-13T03:11:12;95619.06;;;23.68;55.53
64668;BME280;51077;42.716;23.344;2023-07-13T03:13:39;95615.53;;;23.68;55.67
64668;BME280;51077;42.716;23.344;2023-07-13T03:16:05;95615.41;;;23.66;55.57
64668;BME280;51077;42.716;23.344;2023-07-13T03:18:31;95618.03;;;23.64;55.55
64668;BME280;51077;42.716;23.344;2023-07-13T03:20:57;95616.56;;;23.63;55.50
64668;BME280;51077;42.716;23.344;2023-07-13T03:23:23;95615.09;;;23.62;55.68
64668;BME280;51077;42.716;23.344;2023-07-13T03:25:48;95619.34;;;23.63;55.65
64668;BME280;51077;42.716;23.344;2023-07-13T03:28:14;95620.69;;;23.62;55.51
64668;BME280;51077;42.716;23.344;2023-07-13T03:30:40;95619.22;;;23.61;55.68
64668;BME280;51077;42.716;23.344;2023-07-13T03:33:06;95620.69;;;23.62;55.69
64668;BME280;51077;42.716;23.344;2023-07-13T03:35:32;95620.81;;;23.64;55.54
64668;BME280;51077;42.716;23.344;2023-07-13T03:37:59;95623.09;;;23.65;55.63
64668;BME280;51077;42.716;23.344;2023-07-13T03:40:25;95629.41;;;23.66;55.41
64668;BME280;51077;42.716;23.344;2023-07-13T03:42:51;95622.47;;;23.67;55.45
64668;BME280;51077;42.716;23.344;2023-07-13T03:45:17;95621.13;;;23.68;55.52
64668;BME280;51077;42.716;23.344;2023-07-13T03:47:42;95626.91;;;23.70;55.36
64668;BME280;51077;42.716;23.344;2023-07-13T03:50:08;95624.25;;;23.72;55.42
64668;BME280;51077;42.716;23.344;2023-07-13T03:52:33;95615.25;;;23.73;55.41
64668;BME280;51077;42.716;23.344;2023-07-13T03:54:59;95613.91;;;23.74;55.04
64668;BME280;51077;42.716;23.344;2023-07-13T03:57:24;95620.38;;;23.77;55.10
64668;BME280;51077;42.716;23.344;2023-07-13T03:59:49;95629.56;;;23.77;55.30
64668;BME280;51077;42.716;23.344;2023-07-13T04:02:15;95624.81;;;23.80;55.04
64668;BME280;51077;42.716;23.344;2023-07-13T04:04:40;95619.22;;;23.80;55.19
64668;BME280;51077;42.716;23.344;2023-07-13T04:07:06;95615.84;;;23.81;55.18
64668;BME280;51077;42.716;23.344;2023-07-13T04:09:33;95618.03;;;23.83;54.93
64668;BME280;51077;42.716;23.344;2023-07-13T04:11:59;95616.69;;;23.84;54.88
64668;BME280;51077;42.716;23.344;2023-07-13T04:14:24;95611.25;;;23.86;55.19
64668;BME280;51077;42.716;23.344;2023-07-13T04:16:49;95620.53;;;23.89;55.15
64668;BME280;51077;42.716;23.344;2023-07-13T04:19:15;95624.34;;;23.93;54.98
64668;BME280;51077;42.716;23.344;2023-07-13T04:21:40;95631.72;;;23.98;54.83
64668;BME280;51077;42.716;23.344;2023-07-13T04:24:06;95625.53;;;24.00;54.87
64668;BME280;51077;42.716;23.344;2023-07-13T04:26:33;95637.31;;;24.08;54.78
64668;BME280;51077;42.716;23.344;2023-07-13T04:29:01;95633.59;;;24.15;54.50
64668;BME280;51077;42.716;23.344;2023-07-13T04:31:28;95635.94;;;24.19;54.54
64668;BME280;51077;42.716;23.344;2023-07-13T04:33:53;95639.75;;;24.23;54.48
64668;BME280;51077;42.716;23.344;2023-07-13T04:36:19;95645.19;;;24.31;54.38
64668;BME280;51077;42.716;23.344;2023-07-13T04:38:44;95648.28;;;24.35;54.33
64668;BME280;51077;42.716;23.344;2023-07-13T04:41:10;95641.78;;;24.42;54.17
64668;BME280;51077;42.716;23.344;2023-07-13T04:43:36;95647.81;;;24.48;54.11
64668;BME280;51077;42.716;23.344;2023-07-13T04:46:07;95642.63;;;24.54;53.84
64668;BME280;51077;42.716;23.344;2023-07-13T04:48:33;95642.91;;;24.58;53.92
64668;BME280;51077;42.716;23.344;2023-07-13T04:50:59;95654.56;;;24.65;53.61
64668;BME280;51077;42.716;23.344;2023-07-13T04:53:25;95657.16;;;24.72;53.56
64668;BME280;51077;42.716;23.344;2023-07-13T04:55:51;95663.03;;;24.76;53.72
64668;BME280;51077;42.716;23.344;2023-07-13T04:58:17;95665.69;;;24.84;53.62
64668;BME280;51077;42.716;23.344;2023-07-13T05:00:43;95663.25;;;24.90;53.24
64668;BME280;51077;42.716;23.344;2023-07-13T05:03:08;95667.22;;;24.97;53.47
64668;BME280;51077;42.716;23.344;2023-07-13T05:05:34;95668.25;;;25.01;53.25
64668;BME280;51077;42.716;23.344;2023-07-13T05:07:59;95658.19;;;25.08;53.08
64668;BME280;51077;42.716;23.344;2023-07-13T05:10:24;95664.94;;;25.15;52.98
64668;BME280;51077;42.716;23.344;2023-07-13T05:12:50;95662.53;;;25.21;52.52
64668;BME280;51077;42.716;23.344;2023-07-13T05:15:16;95662.94;;;25.27;52.50
64668;BME280;51077;42.716;23.344;2023-07-13T05:17:46;95673.38;;;25.36;52.57
64668;BME280;51077;42.716;23.344;2023-07-13T05:20:11;95665.19;;;25.40;52.35
64668;BME280;51077;42.716;23.344;2023-07-13T05:22:36;95666.47;;;25.49;52.04
64668;BME280;51077;42.716;23.344;2023-07-13T05:25:05;95666.25;;;25.56;51.92
64668;BME280;51077;42.716;23.344;2023-07-13T05:27:30;95661.03;;;25.63;51.90
64668;BME280;51077;42.716;23.344;2023-07-13T05:29:56;95662.16;;;25.69;51.48
64668;BME280;51077;42.716;23.344;2023-07-13T05:32:21;95668.91;;;25.76;51.40
64668;BME280;51077;42.716;23.344;2023-07-13T05:34:46;95670.06;;;25.83;51.08
64668;BME280;51077;42.716;23.344;2023-07-13T05:37:12;95668.34;;;25.89;51.29
64668;BME280;51077;42.716;23.344;2023-07-13T05:39:37;95673.66;;;25.95;51.11
64668;BME280;51077;42.716;23.344;2023-07-13T05:42:03;95676.22;;;26.02;50.61
64668;BME280;51077;42.716;23.344;2023-07-13T05:44:28;95671.72;;;26.09;50.57
64668;BME280;51077;42.716;23.344;2023-07-13T05:46:54;95675.06;;;26.17;50.56
64668;BME280;51077;42.716;23.344;2023-07-13T05:49:22;95675.56;;;26.25;50.54
64668;BME280;51077;42.716;23.344;2023-07-13T05:51:47;95681.09;;;26.35;50.14
64668;BME280;51077;42.716;23.344;2023-07-13T05:54:13;95671.81;;;26.44;49.83
64668;BME280;51077;42.716;23.344;2023-07-13T05:56:38;95680.16;;;26.54;49.54
64668;BME280;51077;42.716;23.344;2023-07-13T05:59:03;95663.03;;;26.62;49.61
64668;BME280;51077;42.716;23.344;2023-07-13T06:01:30;95670.72;;;26.73;49.09
64668;BME280;51077;42.716;23.344;2023-07-13T06:03:56;95655.81;;;26.82;48.84
64668;BME280;51077;42.716;23.344;2023-07-13T06:06:21;95655.03;;;26.93;49.01
64668;BME280;51077;42.716;23.344;2023-07-13T06:08:47;95662.75;;;27.04;48.55
64668;BME280;51077;42.716;23.344;2023-07-13T06:11:15;95674.66;;;27.15;48.14
64668;BME280;51077;42.716;23.344;2023-07-13T06:13:40;95680.13;;;27.24;48.09
64668;BME280;51077;42.716;23.344;2023-07-13T06:16:06;95670.31;;;27.37;47.85
64668;BME280;51077;42.716;23.344;2023-07-13T06:18:33;95675.28;;;27.50;47.62
64668;BME280;51077;42.716;23.344;2023-07-13T06:20:58;95667.44;;;27.61;47.26
64668;BME280;51077;42.716;23.344;2023-07-13T06:23:24;95678.69;;;27.72;46.73
64668;BME280;51077;42.716;23.344;2023-07-13T06:25:50;95689.81;;;27.82;46.45
64668;BME280;51077;42.716;23.344;2023-07-13T06:28:15;95684.00;;;27.92;46.34
64668;BME280;51077;42.716;23.344;2023-07-13T06:30:41;95672.66;;;28.03;45.92
64668;BME280;51077;42.716;23.344;2023-07-13T06:33:06;95662.53;;;28.12;45.98
64668;BME280;51077;42.716;23.344;2023-07-13T06:35:32;95671.59;;;28.22;45.25
64668;BME280;51077;42.716;23.344;2023-07-13T06:37:57;95672.75;;;28.31;45.34
64668;BME280;51077;42.716;23.344;2023-07-13T06:40:22;95668.91;;;28.38;45.36
64668;BME280;51077;42.716;23.344;2023-07-13T06:42:48;95670.72;;;28.45;45.16
64668;BME280;51077;42.716;23.344;2023-07-13T06:45:13;95661.31;;;28.54;44.87
64668;BME280;51077;42.716;23.344;2023-07-13T06:47:39;95664.50;;;28.61;44.84
64668;BME280;51077;42.716;23.344;2023-07-13T06:50:05;95668.47;;;28.69;44.76
64668;BME280;51077;42.716;23.344;2023-07-13T06:52:30;95666.06;;;28.77;44.45
64668;BME280;51077;42.716;23.344;2023-07-13T06:54:56;95666.47;;;28.86;44.43
64668;BME280;51077;42.716;23.344;2023-07-13T06:57:21;95667.63;;;28.94;44.00
64668;BME280;51077;42.716;23.344;2023-07-13T06:59:46;95671.03;;;29.04;43.71
64668;BME280;51077;42.716;23.344;2023-07-13T07:02:12;95668.72;;;29.15;43.15
64668;BME280;51077;42.716;23.344;2023-07-13T07:04:37;95667.88;;;29.26;42.96
64668;BME280;51077;42.716;23.344;2023-07-13T07:07:03;95666.28;;;29.37;42.40
64668;BME280;51077;42.716;23.344;2023-07-13T07:09:28;95661.03;;;29.45;42.21
64668;BME280;51077;42.716;23.344;2023-07-13T07:11:55;95655.13;;;29.54;41.71
64668;BME280;51077;42.716;23.344;2023-07-13T07:14:21;95656.50;;;29.67;41.32
64668;BME280;51077;42.716;23.344;2023-07-13T07:16:46;95650.69;;;29.79;41.05
64668;BME280;51077;42.716;23.344;2023-07-13T07:19:11;95652.00;;;29.92;40.61
64668;BME280;51077;42.716;23.344;2023-07-13T07:21:37;95647.56;;;30.02;40.12
64668;BME280;51077;42.716;23.344;2023-07-13T07:24:02;95654.56;;;30.15;39.85
64668;BME280;51077;42.716;23.344;2023-07-13T07:26:29;95657.94;;;30.27;39.44
64668;BME280;51077;42.716;23.344;2023-07-13T07:28:55;95655.50;;;30.36;38.58
64668;BME280;51077;42.716;23.344;2023-07-13T07:31:20;95649.47;;;30.43;37.95
64668;BME280;51077;42.716;23.344;2023-07-13T07:33:45;95645.84;;;30.57;38.09
64668;BME280;51077;42.716;23.344;2023-07-13T07:36:11;95640.06;;;30.70;37.56
64668;BME280;51077;42.716;23.344;2023-07-13T07:38:37;95647.09;;;30.85;37.44
64668;BME280;51077;42.716;23.344;2023-07-13T07:41:04;95637.84;;;31.00;37.60
64668;BME280;51077;42.716;23.344;2023-07-13T07:43:30;95634.97;;;31.16;37.42
64668;BME280;51077;42.716;23.344;2023-07-13T07:45:56;95635.03;;;31.34;36.64
64668;BME280;51077;42.716;23.344;2023-07-13T07:48:21;95634.91;;;31.48;36.82
64668;BME280;51077;42.716;23.344;2023-07-13T07:50:47;95634.03;;;31.61;36.58
64668;BME280;51077;42.716;23.344;2023-07-13T07:53:12;95630.22;;;31.72;36.56
64668;BME280;51077;42.716;23.344;2023-07-13T07:55:38;95613.50;;;31.81;36.43
64668;BME280;51077;42.716;23.344;2023-07-13T07:58:04;95623.34;;;31.95;35.88
64668;BME280;51077;42.716;23.344;2023-07-13T08:00:30;95623.25;;;32.11;35.60
64668;BME280;51077;42.716;23.344;2023-07-13T08:02:57;95625.69;;;32.19;35.30
64668;BME280;51077;42.716;23.344;2023-07-13T08:05:23;95619.09;;;32.32;35.16
64668;BME280;51077;42.716;23.344;2023-07-13T08:07:48;95608.34;;;32.48;35.01
64668;BME280;51077;42.716;23.344;2023-07-13T08:10:14;95614.69;;;32.67;34.85
64668;BME280;51077;42.716;23.344;2023-07-13T08:12:40;95608.13;;;32.82;34.77
64668;BME280;51077;42.716;23.344;2023-07-13T08:15:09;95600.78;;;32.95;34.31
64668;BME280;51077;42.716;23.344;2023-07-13T08:17:35;95606.75;;;33.03;34.22
64668;BME280;51077;42.716;23.344;2023-07-13T08:20:00;95596.47;;;33.14;33.91
64668;BME280;51077;42.716;23.344;2023-07-13T08:22:26;95597.75;;;33.31;33.63
64668;BME280;51077;42.716;23.344;2023-07-13T08:24:52;95595.78;;;33.35;33.34
64668;BME280;51077;42.716;23.344;2023-07-13T08:27:22;95595.44;;;33.47;33.41
64668;BME280;51077;42.716;23.344;2023-07-13T08:29:48;95592.41;;;33.63;33.11
64668;BME280;51077;42.716;23.344;2023-07-13T08:32:15;95590.69;;;33.75;32.80
64668;BME280;51077;42.716;23.344;2023-07-13T08:34:40;95582.41;;;33.84;32.87
64668;BME280;51077;42.716;23.344;2023-07-13T08:37:06;95577.63;;;33.90;32.73
64668;BME280;51077;42.716;23.344;2023-07-13T08:39:33;95568.28;;;34.10;32.38
64668;BME280;51077;42.716;23.344;2023-07-13T08:42:05;95568.81;;;34.28;32.02
64668;BME280;51077;42.716;23.344;2023-07-13T08:47:04;95574.38;;;34.48;31.80
64668;BME280;51077;42.716;23.344;2023-07-13T08:49:30;95577.22;;;34.48;31.45
64668;BME280;51077;42.716;23.344;2023-07-13T08:52:04;95582.50;;;34.58;31.08
64668;BME280;51077;42.716;23.344;2023-07-13T08:54:34;95577.88;;;34.70;31.20
64668;BME280;51077;42.716;23.344;2023-07-13T08:57:09;95587.56;;;34.87;31.11
64668;BME280;51077;42.716;23.344;2023-07-13T08:59:37;95598.06;;;35.05;30.89
64668;BME280;51077;42.716;23.344;2023-07-13T09:05:08;95594.72;;;35.40;31.15
64668;BME280;51077;42.716;23.344;2023-07-13T09:10:46;95612.03;;;35.77;30.52
64668;BME280;51077;42.716;23.344;2023-07-13T09:13:33;95607.47;;;35.95;30.32
64668;BME280;51077;42.716;23.344;2023-07-13T09:16:03;95611.31;;;36.06;30.21
64668;BME280;51077;42.716;23.344;2023-07-13T09:18:33;95602.16;;;36.12;29.65
64668;BME280;51077;42.716;23.344;2023-07-13T09:21:04;95603.84;;;36.23;30.33
64668;BME280;51077;42.716;23.344;2023-07-13T09:23:34;95601.22;;;36.35;30.00
64668;BME280;51077;42.716;23.344;2023-07-13T09:26:05;95596.66;;;36.54;29.54
64668;BME280;51077;42.716;23.344;2023-07-13T09:28:39;95607.66;;;36.68;29.15
64668;BME280;51077;42.716;23.344;2023-07-13T09:33:38;95592.47;;;36.93;29.10
64668;BME280;51077;42.716;23.344;2023-07-13T09:36:18;95598.34;;;37.04;28.74
64668;BME280;51077;42.716;23.344;2023-07-13T09:38:44;95588.66;;;37.21;28.92
64668;BME280;51077;42.716;23.344;2023-07-13T09:46:34;95580.81;;;37.62;28.12
64668;BME280;51077;42.716;23.344;2023-07-13T09:48:59;95563.66;;;37.66;27.62
64668;BME280;51077;42.716;23.344;2023-07-13T09:51:25;95558.69;;;37.66;27.68
64668;BME280;51077;42.716;23.344;2023-07-13T09:53:50;95556.75;;;37.81;27.58
64668;BME280;51077;42.716;23.344;2023-07-13T09:56:42;95553.97;;;37.87;27.40
64668;BME280;51077;42.716;23.344;2023-07-13T09:59:19;95560.06;;;38.12;27.27
64668;BME280;51077;42.716;23.344;2023-07-13T10:01:45;95552.44;;;38.31;27.03
64668;BME280;51077;42.716;23.344;2023-07-13T10:04:12;95549.78;;;38.45;27.00
64668;BME280;51077;42.716;23.344;2023-07-13T10:06:39;95549.78;;;38.47;26.88
64668;BME280;51077;42.716;23.344;2023-07-13T10:09:08;95537.03;;;38.60;26.84
64668;BME280;51077;42.716;23.344;2023-07-13T10:11:35;95527.81;;;38.70;26.48
64668;BME280;51077;42.716;23.344;2023-07-13T10:14:03;95530.13;;;38.82;26.36
64668;BME280;51077;42.716;23.344;2023-07-13T10:16:35;95529.59;;;38.97;26.14
64668;BME280;51077;42.716;23.344;2023-07-13T10:21:36;95541.38;;;39.28;25.88
64668;BME280;51077;42.716;23.344;2023-07-13T10:26:33;95531.56;;;39.58;24.44
64668;BME280;51077;42.716;23.344;2023-07-13T10:29:05;95528.09;;;39.72;24.20
64668;BME280;51077;42.716;23.344;2023-07-13T10:31:34;95520.97;;;39.83;23.63
64668;BME280;51077;42.716;23.344;2023-07-13T10:34:02;95511.66;;;39.86;23.41
64668;BME280;51077;42.716;23.344;2023-07-13T10:36:39;95516.03;;;39.95;23.38
64668;BME280;51077;42.716;23.344;2023-07-13T10:39:06;95518.91;;;39.95;22.67
64668;BME280;51077;42.716;23.344;2023-07-13T10:41:39;95514.69;;;40.13;22.30
64668;BME280;51077;42.716;23.344;2023-07-13T10:44:09;95502.50;;;40.23;22.75
64668;BME280;51077;42.716;23.344;2023-07-13T10:46:41;95500.72;;;38.83;20.74
64668;BME280;51077;42.716;23.344;2023-07-13T10:49:08;95498.84;;;39.10;21.42
64668;BME280;51077;42.716;23.344;2023-07-13T10:51:35;95492.75;;;39.55;21.14
64668;BME280;51077;42.716;23.344;2023-07-13T10:54:27;95487.34;;;40.08;20.80
64668;BME280;51077;42.716;23.344;2023-07-13T10:57:10;95494.63;;;40.25;19.80
64668;BME280;51077;42.716;23.344;2023-07-13T10:59:42;95483.91;;;40.38;19.71
64668;BME280;51077;42.716;23.344;2023-07-13T11:02:26;95485.41;;;40.53;19.91
64668;BME280;51077;42.716;23.344;2023-07-13T11:04:54;95481.84;;;40.59;19.55
64668;BME280;51077;42.716;23.344;2023-07-13T11:09:58;95468.91;;;40.64;20.15
64668;BME280;51077;42.716;23.344;2023-07-13T11:25:28;95456.00;;;40.96;19.29
64668;BME280;51077;42.716;23.344;2023-07-13T11:30:42;95446.66;;;41.05;19.07
64668;BME280;51077;42.716;23.344;2023-07-13T11:36:00;95441.63;;;41.38;18.53
64668;BME280;51077;42.716;23.344;2023-07-13T11:41:05;95435.84;;;41.49;18.63
64668;BME280;51077;42.716;23.344;2023-07-13T11:43:32;95439.47;;;41.43;18.66
64668;BME280;51077;42.716;23.344;2023-07-13T11:46:12;95434.41;;;41.54;18.69
64668;BME280;51077;42.716;23.344;2023-07-13T11:48:37;95430.06;;;41.65;18.35
64668;BME280;51077;42.716;23.344;2023-07-13T11:51:13;95434.41;;;41.01;18.05
64668;BME280;51077;42.716;23.344;2023-07-13T11:53:46;95423.59;;;40.87;18.95
64668;BME280;51077;42.716;23.344;2023-07-13T11:56:13;95418.56;;;40.93;18.84
64668;BME280;51077;42.716;23.344;2023-07-13T11:58:39;95414.25;;;41.05;19.25
64668;BME280;51077;42.716;23.344;2023-07-13T12:01:04;95411.38;;;41.19;18.89
64668;BME280;51077;42.716;23.344;2023-07-13T12:03:32;95404.88;;;41.31;18.97
64668;BME280;51077;42.716;23.344;2023-07-13T12:06:21;95410.66;;;41.47;18.91
64668;BME280;51077;42.716;23.344;2023-07-13T12:08:48;95404.13;;;41.65;18.60
64668;BME280;51077;42.716;23.344;2023-07-13T12:11:18;95399.78;;;41.66;18.98
64668;BME280;51077;42.716;23.344;2023-07-13T12:13:44;95405.56;;;41.64;19.03
64668;BME280;51077;42.716;23.344;2023-07-13T12:16:28;95394.72;;;41.83;19.07
64668;BME280;51077;42.716;23.344;2023-07-13T12:18:54;95385.34;;;41.70;19.18
64668;BME280;51077;42.716;23.344;2023-07-13T12:21:27;95383.97;;;41.63;19.77
64668;BME280;51077;42.716;23.344;2023-07-13T12:23:55;95377.50;;;41.52;19.66
64668;BME280;51077;42.716;23.344;2023-07-13T12:26:20;95381.06;;;41.61;19.63
64668;BME280;51077;42.716;23.344;2023-07-13T12:28:52;95374.56;;;41.68;19.67
64668;BME280;51077;42.716;23.344;2023-07-13T12:34:07;95363.78;;;41.61;19.97
64668;BME280;51077;42.716;23.344;2023-07-13T12:36:36;95369.56;;;41.57;19.94
64668;BME280;51077;42.716;23.344;2023-07-13T12:39:52;95368.09;;;41.64;19.74
64668;BME280;51077;42.716;23.344;2023-07-13T12:41:52;95352.19;;;41.77;19.58
64668;BME280;51077;42.716;23.344;2023-07-13T12:44:29;95356.56;;;41.68;19.34
64668;BME280;51077;42.716;23.344;2023-07-13T12:47:06;95355.13;;;41.61;19.70
64668;BME280;51077;42.716;23.344;2023-07-13T12:49:41;95352.28;;;41.53;19.63
64668;BME280;51077;42.716;23.344;2023-07-13T12:52:14;95350.13;;;41.47;19.51
64668;BME280;51077;42.716;23.344;2023-07-13T12:54:40;95351.56;;;41.52;19.54
64668;BME280;51077;42.716;23.344;2023-07-13T12:57:13;95344.41;;;41.29;19.58
64668;BME280;51077;42.716;23.344;2023-07-13T12:59:42;95333.59;;;41.27;19.96
64668;BME280;51077;42.716;23.344;2023-07-13T13:02:30;95340.78;;;41.40;19.47
64668;BME280;51077;42.716;23.344;2023-07-13T13:04:57;95335.03;;;41.26;19.96
64668;BME280;51077;42.716;23.344;2023-07-13T13:07:23;95330.75;;;41.17;19.58
64668;BME280;51077;42.716;23.344;2023-07-13T13:09:49;95330.00;;;41.31;19.13
64668;BME280;51077;42.716;23.344;2023-07-13T13:12:14;95332.88;;;41.37;18.98
64668;BME280;51077;42.716;23.344;2023-07-13T13:14:42;95315.59;;;41.39;18.36
64668;BME280;51077;42.716;23.344;2023-07-13T13:17:28;95327.88;;;41.11;18.83
64668;BME280;51077;42.716;23.344;2023-07-13T13:19:54;95328.59;;;41.05;19.08
64668;BME280;51077;42.716;23.344;2023-07-13T13:22:20;95327.16;;;40.94;19.42
64668;BME280;51077;42.716;23.344;2023-07-13T13:24:46;95320.69;;;40.81;19.43
64668;BME280;51077;42.716;23.344;2023-07-13T13:27:20;95319.25;;;40.66;19.29
64668;BME280;51077;42.716;23.344;2023-07-13T13:29:47;95319.94;;;40.48;19.47
64668;BME280;51077;42.716;23.344;2023-07-13T13:32:14;95322.81;;;40.24;19.57
64668;BME280;51077;42.716;23.344;2023-07-13T13:34:41;95322.78;;;40.09;19.85
64668;BME280;51077;42.716;23.344;2023-07-13T13:37:17;95316.94;;;39.87;20.39
64668;BME280;51077;42.716;23.344;2023-07-13T13:39:43;95316.81;;;39.54;20.69